sensor_id;sensor_type;location;lat;lon;timestamp;pressure;altitude;pressure_sealevel;temperature;humidity
18749;BME280;9503;53.560;10.246;2023-09-18T00:01:44;100428.28;;;25.15;68.51
18749;BME280;9503;53.560;10.246;2023-09-18T00:04:11;100425.38;;;24.73;70.12
18749;BME280;9503;53.560;10.246;2023-09-18T00:06:37;100423.94;;;25.11;68.71
18749;BME280;9503;53.560;10.246;2023-09-18T00:09:04;100412.47;;;25.18;68.73
18749;BME280;9503;53.560;10.246;2023-09-18T00:11:32;100410.75;;;24.59;70.42
18749;BME280;9503;53.560;10.246;2023-09-18T00:13:58;100418.72;;;25.10;68.89
18749;BME280;9503;53.560;10.246;2023-09-18T00:16:27;100406.94;;;25.33;67.76
18749;BME280;9503;53.560;10.246;2023-09-18T00:18:53;100408.22;;;25.13;68.19
18749;BME280;9503;53.560;10.246;2023-09-18T00:21:20;100406.63;;;24.99;69.05
18749;BME280;9503;53.560;10.246;2023-09-18T00:23:47;100405.38;;;25.23;68.69
18749;BME280;9503;53.560;10.246;2023-09-18T00:26:14;100411.13;;;24.90;69.05
18749;BME280;9503;53.560;10.246;2023-09-18T00:28:40;100399.06;;;24.79;69.91
18749;BME280;9503;53.560;10.246;2023-09-18T00:31:07;100392.59;;;25.03;69.08
18749;BME280;9503;53.560;10.246;2023-09-18T00:33:35;100389.06;;;25.06;68.75
18749;BME280;9503;53.560;10.246;2023-09-18T00:36:03;100381.06;;;25.14;68.62
18749;BME280;9503;53.560;10.246;2023-09-18T00:38:29;100374.63;;;24.77;69.53
18749;BME280;9503;53.560;10.246;2023-09-18T00:40:56;100384.03;;;24.91;69.58
18749;BME280;9503;53.560;10.246;2023-09-18T00:43:22;100373.13;;;25.17;68.32
18749;BME280;9503;53.560;10.246;2023-09-18T00:45:49;100363.25;;;24.78;69.67
18749;BME280;9503;53.560;10.246;2023-09-18T00:48:16;100371.56;;;25.06;68.51
18749;BME280;9503;53.560;10.246;2023-09-18T00:50:45;100363.94;;;24.90;69.14
18749;BME280;9503;53.560;10.246;2023-09-18T00:53:14;100368.44;;;24.83;69.25
18749;BME280;9503;53.560;10.246;2023-09-18T00:55:42;100360.28;;;25.00;68.46
18749;BME280;9503;53.560;10.246;2023-09-18T00:58:09;100356.84;;;24.95;68.72
18749;BME280;9503;53.560;10.246;2023-09-18T01:00:36;100356.84;;;24.41;70.56
18749;BME280;9503;53.560;10.246;2023-09-18T01:03:04;100349.28;;;24.78;69.42
18749;BME280;9503;53.560;10.246;2023-09-18T01:05:31;100346.66;;;24.78;69.14
18749;BME280;9503;53.560;10.246;2023-09-18T01:08:00;100342.53;;;24.63;69.97
18749;BME280;9503;53.560;10.246;2023-09-18T01:10:33;100343.06;;;24.84;69.15
18749;BME280;9503;53.560;10.246;2023-09-18T01:13:04;100348.84;;;24.50;70.35
18749;BME280;9503;53.560;10.246;2023-09-18T01:15:35;100346.81;;;24.69;69.60
18749;BME280;9503;53.560;10.246;2023-09-18T01:18:03;100338.81;;;24.76;69.46
18749;BME280;9503;53.560;10.246;2023-09-18T01:20:30;100332.97;;;24.59;69.91
18749;BME280;9503;53.560;10.246;2023-09-18T01:22:58;100328.38;;;24.13;71.03
18749;BME280;9503;53.560;10.246;2023-09-18T01:25:25;100321.25;;;24.24;71.04
18749;BME280;9503;53.560;10.246;2023-09-18T01:27:52;100325.09;;;24.61;70.21
18749;BME280;9503;53.560;10.246;2023-09-18T01:30:18;100305.78;;;24.65;69.57
18749;BME280;9503;53.560;10.246;2023-09-18T01:32:45;100312.63;;;24.73;69.56
18749;BME280;9503;53.560;10.246;2023-09-18T01:35:13;100304.53;;;24.30;70.88
18749;BME280;9503;53.560;10.246;2023-09-18T01:37:40;100303.75;;;24.23;70.95
18749;BME280;9503;53.560;10.246;2023-09-18T01:40:10;100299.06;;;24.48;70.14
18749;BME280;9503;53.560;10.246;2023-09-18T01:42:37;100291.56;;;24.24;70.79
18749;BME280;9503;53.560;10.246;2023-09-18T01:45:07;100284.78;;;24.08;71.05
18749;BME280;9503;53.560;10.246;2023-09-18T01:47:34;100292.28;;;24.32;70.97
18749;BME280;9503;53.560;10.246;2023-09-18T01:50:03;100283.94;;;24.06;71.75
18749;BME280;9503;53.560;10.246;2023-09-18T01:52:31;100278.16;;;24.44;70.16
18749;BME280;9503;53.560;10.246;2023-09-18T01:54:59;100275.63;;;24.38;70.16
18749;BME280;9503;53.560;10.246;2023-09-18T01:57:27;100274.75;;;24.39;70.14
18749;BME280;9503;53.560;10.246;2023-09-18T01:59:54;100268.84;;;24.21;70.70
18749;BME280;9503;53.560;10.246;2023-09-18T02:02:21;100262.59;;;24.30;71.00
18749;BME280;9503;53.560;10.246;2023-09-18T02:04:48;100257.38;;;24.33;70.79
18749;BME280;9503;53.560;10.246;2023-09-18T02:07:14;100261.09;;;24.15;71.23
18749;BME280;9503;53.560;10.246;2023-09-18T02:09:41;100253.50;;;23.97;71.21
18749;BME280;9503;53.560;10.246;2023-09-18T02:12:08;100250.72;;;24.08;70.85
18749;BME280;9503;53.560;10.246;2023-09-18T02:14:36;100249.59;;;24.25;70.54
18749;BME280;9503;53.560;10.246;2023-09-18T02:17:03;100247.22;;;24.10;70.98
18749;BME280;9503;53.560;10.246;2023-09-18T02:19:30;100235.09;;;24.02;71.54
18749;BME280;9503;53.560;10.246;2023-09-18T02:21:57;100242.75;;;24.15;71.25
18749;BME280;9503;53.560;10.246;2023-09-18T02:24:23;100236.72;;;24.10;71.18
18749;BME280;9503;53.560;10.246;2023-09-18T02:26:50;100224.28;;;24.24;70.71
18749;BME280;9503;53.560;10.246;2023-09-18T02:29:17;100221.78;;;24.15;70.63
18749;BME280;9503;53.560;10.246;2023-09-18T02:31:45;100221.25;;;23.95;71.71
18749;BME280;9503;53.560;10.246;2023-09-18T02:34:11;100220.72;;;24.29;70.69
18749;BME280;9503;53.560;10.246;2023-09-18T02:36:38;100221.44;;;24.40;69.98
18749;BME280;9503;53.560;10.246;2023-09-18T02:39:05;100216.81;;;23.98;71.38
18749;BME280;9503;53.560;10.246;2023-09-18T02:41:31;100212.38;;;24.04;70.88
18749;BME280;9503;53.560;10.246;2023-09-18T02:43:58;100211.31;;;24.15;70.84
18749;BME280;9503;53.560;10.246;2023-09-18T02:46:25;100212.16;;;24.17;70.47
18749;BME280;9503;53.560;10.246;2023-09-18T02:48:52;100206.25;;;24.05;70.64
18749;BME280;9503;53.560;10.246;2023-09-18T02:51:19;100203.59;;;24.06;70.69
18749;BME280;9503;53.560;10.246;2023-09-18T02:53:46;100206.16;;;23.48;73.02
18749;BME280;9503;53.560;10.246;2023-09-18T02:56:13;100194.19;;;23.93;71.73
18749;BME280;9503;53.560;10.246;2023-09-18T02:58:40;100193.41;;;23.86;71.09
18749;BME280;9503;53.560;10.246;2023-09-18T03:01:07;100188.91;;;23.97;70.97
18749;BME280;9503;53.560;10.246;2023-09-18T03:03:34;100189.19;;;23.78;71.87
18749;BME280;9503;53.560;10.246;2023-09-18T03:06:02;100186.81;;;24.19;70.38
18749;BME280;9503;53.560;10.246;2023-09-18T03:08:30;100187.88;;;24.06;70.93
18749;BME280;9503;53.560;10.246;2023-09-18T03:10:57;100193.41;;;23.89;71.08
18749;BME280;9503;53.560;10.246;2023-09-18T03:13:23;100200.94;;;24.11;70.28
18749;BME280;9503;53.560;10.246;2023-09-18T03:15:50;100201.91;;;24.04;71.11
18749;BME280;9503;53.560;10.246;2023-09-18T03:18:16;100192.81;;;23.69;72.08
18749;BME280;9503;53.560;10.246;2023-09-18T03:20:43;100185.75;;;23.74;71.72
18749;BME280;9503;53.560;10.246;2023-09-18T03:23:12;100188.41;;;23.73;71.81
18749;BME280;9503;53.560;10.246;2023-09-18T03:25:39;100180.19;;;23.97;71.17
18749;BME280;9503;53.560;10.246;2023-09-18T03:28:06;100169.66;;;23.38;72.89
18749;BME280;9503;53.560;10.246;2023-09-18T03:30:32;100171.56;;;23.24;73.76
18749;BME280;9503;53.560;10.246;2023-09-18T03:32:59;100167.16;;;23.28;73.48
18749;BME280;9503;53.560;10.246;2023-09-18T03:35:28;100165.81;;;23.65;72.22
18749;BME280;9503;53.560;10.246;2023-09-18T03:37:55;100154.53;;;22.91;74.82
18749;BME280;9503;53.560;10.246;2023-09-18T03:40:23;100147.78;;;23.41;73.22
18749;BME280;9503;53.560;10.246;2023-09-18T03:42:51;100144.84;;;22.98;74.84
18749;BME280;9503;53.560;10.246;2023-09-18T03:45:17;100146.66;;;22.94;74.87
18749;BME280;9503;53.560;10.246;2023-09-18T03:47:45;100140.94;;;23.32;73.38
18749;BME280;9503;53.560;10.246;2023-09-18T03:50:12;100131.41;;;23.28;73.49
18749;BME280;9503;53.560;10.246;2023-09-18T03:52:39;100117.34;;;23.37;73.36
18749;BME280;9503;53.560;10.246;2023-09-18T03:55:07;100117.22;;;23.44;73.16
18749;BME280;9503;53.560;10.246;2023-09-18T03:57:35;100123.25;;;23.50;73.08
18749;BME280;9503;53.560;10.246;2023-09-18T04:00:04;100115.03;;;23.76;71.92
18749;BME280;9503;53.560;10.246;2023-09-18T04:02:32;100117.84;;;23.63;72.10
18749;BME280;9503;53.560;10.246;2023-09-18T04:04:59;100108.06;;;23.14;73.72
18749;BME280;9503;53.560;10.246;2023-09-18T04:07:26;100107.66;;;23.42;73.11
18749;BME280;9503;53.560;10.246;2023-09-18T04:09:52;100088.38;;;23.48;73.28
18749;BME280;9503;53.560;10.246;2023-09-18T04:12:19;100097.59;;;23.14;73.66
18749;BME280;9503;53.560;10.246;2023-09-18T04:14:47;100095.63;;;23.30;73.49
18749;BME280;9503;53.560;10.246;2023-09-18T04:17:13;100095.38;;;22.81;75.29
18749;BME280;9503;53.560;10.246;2023-09-18T04:19:40;100084.16;;;23.39;73.35
18749;BME280;9503;53.560;10.246;2023-09-18T04:22:08;100088.78;;;23.20;74.14
18749;BME280;9503;53.560;10.246;2023-09-18T04:24:35;100079.63;;;22.88;74.91
18749;BME280;9503;53.560;10.246;2023-09-18T04:27:02;100067.06;;;23.13;74.37
18749;BME280;9503;53.560;10.246;2023-09-18T04:29:28;100071.13;;;23.34;73.39
18749;BME280;9503;53.560;10.246;2023-09-18T04:31:56;100068.81;;;23.75;71.68
18749;BME280;9503;53.560;10.246;2023-09-18T04:34:23;100061.06;;;23.08;73.82
18749;BME280;9503;53.560;10.246;2023-09-18T04:36:50;100060.53;;;23.45;72.99
18749;BME280;9503;53.560;10.246;2023-09-18T04:39:16;100064.44;;;23.13;73.99
18749;BME280;9503;53.560;10.246;2023-09-18T04:41:45;100057.97;;;23.40;72.98
18749;BME280;9503;53.560;10.246;2023-09-18T04:44:11;100054.78;;;23.20;73.45
18749;BME280;9503;53.560;10.246;2023-09-18T04:46:39;100057.13;;;23.38;72.88
18749;BME280;9503;53.560;10.246;2023-09-18T04:49:09;100055.97;;;22.96;74.37
18749;BME280;9503;53.560;10.246;2023-09-18T04:51:36;100042.09;;;22.93;74.79
18749;BME280;9503;53.560;10.246;2023-09-18T04:54:04;100041.50;;;23.34;73.40
18749;BME280;9503;53.560;10.246;2023-09-18T04:56:31;100036.72;;;23.03;73.78
18749;BME280;9503;53.560;10.246;2023-09-18T04:58:57;100030.28;;;23.26;73.76
18749;BME280;9503;53.560;10.246;2023-09-18T05:01:24;100021.75;;;23.14;74.08
18749;BME280;9503;53.560;10.246;2023-09-18T05:03:51;100014.22;;;22.90;74.88
18749;BME280;9503;53.560;10.246;2023-09-18T05:06:20;100011.06;;;22.62;75.74
18749;BME280;9503;53.560;10.246;2023-09-18T05:08:47;100005.16;;;23.15;74.24
18749;BME280;9503;53.560;10.246;2023-09-18T05:11:13;100008.28;;;22.76;75.12
18749;BME280;9503;53.560;10.246;2023-09-18T05:13:40;99991.94;;;22.60;76.09
18749;BME280;9503;53.560;10.246;2023-09-18T05:16:06;99987.28;;;22.83;75.37
18749;BME280;9503;53.560;10.246;2023-09-18T05:18:33;99980.31;;;23.44;73.45
18749;BME280;9503;53.560;10.246;2023-09-18T05:21:00;99980.53;;;22.67;75.45
18749;BME280;9503;53.560;10.246;2023-09-18T05:23:31;99968.13;;;22.81;75.67
18749;BME280;9503;53.560;10.246;2023-09-18T05:25:57;99969.94;;;22.76;75.61
18749;BME280;9503;53.560;10.246;2023-09-18T05:28:25;99962.56;;;23.06;74.31
18749;BME280;9503;53.560;10.246;2023-09-18T05:30:51;99964.38;;;23.56;73.14
18749;BME280;9503;53.560;10.246;2023-09-18T05:33:18;99964.34;;;23.59;72.52
18749;BME280;9503;53.560;10.246;2023-09-18T05:35:45;99952.00;;;23.13;73.81
18749;BME280;9503;53.560;10.246;2023-09-18T05:38:13;99948.00;;;23.45;72.98
18749;BME280;9503;53.560;10.246;2023-09-18T05:40:41;99949.53;;;23.57;72.43
18749;BME280;9503;53.560;10.246;2023-09-18T05:43:09;99949.78;;;23.41;72.49
18749;BME280;9503;53.560;10.246;2023-09-18T05:45:35;99953.00;;;23.57;72.17
18749;BME280;9503;53.560;10.246;2023-09-18T05:48:03;99957.66;;;23.43;73.15
18749;BME280;9503;53.560;10.246;2023-09-18T05:50:30;99961.84;;;23.52;72.51
18749;BME280;9503;53.560;10.246;2023-09-18T05:52:58;99950.84;;;23.84;71.79
18749;BME280;9503;53.560;10.246;2023-09-18T05:55:25;99944.19;;;23.66;72.33
18749;BME280;9503;53.560;10.246;2023-09-18T05:57:54;99944.13;;;23.69;71.82
18749;BME280;9503;53.560;10.246;2023-09-18T06:00:20;99926.19;;;23.95;70.81
18749;BME280;9503;53.560;10.246;2023-09-18T06:02:47;99925.09;;;24.49;69.60
18749;BME280;9503;53.560;10.246;2023-09-18T06:05:14;99923.69;;;24.73;68.65
18749;BME280;9503;53.560;10.246;2023-09-18T06:07:42;99928.69;;;25.55;66.14
18749;BME280;9503;53.560;10.246;2023-09-18T06:10:10;99917.19;;;25.26;66.89
18749;BME280;9503;53.560;10.246;2023-09-18T06:12:38;99919.03;;;26.21;64.86
18749;BME280;9503;53.560;10.246;2023-09-18T06:15:07;99908.44;;;26.55;63.10
18749;BME280;9503;53.560;10.246;2023-09-18T06:17:35;99911.50;;;25.77;64.25
18749;BME280;9503;53.560;10.246;2023-09-18T06:20:02;99913.09;;;26.14;64.23
18749;BME280;9503;53.560;10.246;2023-09-18T06:22:29;99905.56;;;25.71;65.41
18749;BME280;9503;53.560;10.246;2023-09-18T06:24:56;99905.00;;;25.58;65.53
18749;BME280;9503;53.560;10.246;2023-09-18T06:27:23;99906.13;;;26.13;64.37
18749;BME280;9503;53.560;10.246;2023-09-18T06:29:49;99907.44;;;26.28;63.88
18749;BME280;9503;53.560;10.246;2023-09-18T06:32:17;99907.56;;;26.54;63.57
18749;BME280;9503;53.560;10.246;2023-09-18T06:34:44;99904.97;;;27.09;61.99
18749;BME280;9503;53.560;10.246;2023-09-18T06:37:12;99907.53;;;27.12;61.75
18749;BME280;9503;53.560;10.246;2023-09-18T06:39:39;99901.69;;;26.74;62.77
18749;BME280;9503;53.560;10.246;2023-09-18T06:42:06;99892.34;;;26.92;62.12
18749;BME280;9503;53.560;10.246;2023-09-18T06:44:32;99887.03;;;26.65;63.26
18749;BME280;9503;53.560;10.246;2023-09-18T06:46:59;99883.97;;;26.53;63.73
18749;BME280;9503;53.560;10.246;2023-09-18T06:49:27;99885.25;;;26.38;63.83
18749;BME280;9503;53.560;10.246;2023-09-18T06:51:54;99881.72;;;26.95;62.53
18749;BME280;9503;53.560;10.246;2023-09-18T06:54:20;99903.38;;;27.05;62.12
18749;BME280;9503;53.560;10.246;2023-09-18T06:56:47;99892.34;;;27.20;62.02
18749;BME280;9503;53.560;10.246;2023-09-18T06:59:14;99891.59;;;27.41;61.25
18749;BME280;9503;53.560;10.246;2023-09-18T07:01:41;99879.84;;;27.26;61.88
18749;BME280;9503;53.560;10.246;2023-09-18T07:04:08;99868.00;;;26.85;62.93
18749;BME280;9503;53.560;10.246;2023-09-18T07:06:36;99861.84;;;26.58;64.19
18749;BME280;9503;53.560;10.246;2023-09-18T07:09:04;99849.69;;;26.82;63.56
18749;BME280;9503;53.560;10.246;2023-09-18T07:11:32;99848.19;;;26.47;64.08
18749;BME280;9503;53.560;10.246;2023-09-18T07:13:59;99834.56;;;26.33;64.41
18749;BME280;9503;53.560;10.246;2023-09-18T07:16:26;99828.16;;;26.13;65.88
18749;BME280;9503;53.560;10.246;2023-09-18T07:18:53;99825.50;;;26.71;64.31
18749;BME280;9503;53.560;10.246;2023-09-18T07:21:19;99811.47;;;26.14;65.46
18749;BME280;9503;53.560;10.246;2023-09-18T07:23:47;99816.19;;;26.87;64.37
18749;BME280;9503;53.560;10.246;2023-09-18T07:26:15;99805.28;;;27.24;63.68
18749;BME280;9503;53.560;10.246;2023-09-18T07:28:42;99801.06;;;27.20;63.64
18749;BME280;9503;53.560;10.246;2023-09-18T07:31:11;99802.31;;;27.59;62.44
18749;BME280;9503;53.560;10.246;2023-09-18T07:33:39;99792.03;;;28.45;60.33
18749;BME280;9503;53.560;10.246;2023-09-18T07:36:06;99793.38;;;27.88;61.85
18749;BME280;9503;53.560;10.246;2023-09-18T07:38:35;99783.47;;;27.46;62.64
18749;BME280;9503;53.560;10.246;2023-09-18T07:41:03;99790.34;;;28.44;60.36
18749;BME280;9503;53.560;10.246;2023-09-18T07:43:29;99793.94;;;29.05;58.93
18749;BME280;9503;53.560;10.246;2023-09-18T07:45:56;99800.91;;;28.42;59.89
18749;BME280;9503;53.560;10.246;2023-09-18T07:48:25;99817.44;;;29.11;58.94
18749;BME280;9503;53.560;10.246;2023-09-18T07:50:51;99798.78;;;28.52;60.23
18749;BME280;9503;53.560;10.246;2023-09-18T07:53:20;99812.16;;;28.47;60.04
18749;BME280;9503;53.560;10.246;2023-09-18T07:55:47;99801.41;;;28.96;59.72
18749;BME280;9503;53.560;10.246;2023-09-18T07:58:15;99788.06;;;28.99;59.67
18749;BME280;9503;53.560;10.246;2023-09-18T08:00:42;99791.75;;;28.95;60.05
18749;BME280;9503;53.560;10.246;2023-09-18T08:03:09;99788.50;;;28.88;59.83
18749;BME280;9503;53.560;10.246;2023-09-18T08:05:39;99783.44;;;29.04;59.72
18749;BME280;9503;53.560;10.246;2023-09-18T08:08:14;99794.03;;;29.43;58.68
18749;BME280;9503;53.560;10.246;2023-09-18T08:10:41;99786.28;;;28.77;59.58
18749;BME280;9503;53.560;10.246;2023-09-18T08:13:16;99791.03;;;29.32;59.24
18749;BME280;9503;53.560;10.246;2023-09-18T08:15:45;99782.69;;;29.61;58.54
18749;BME280;9503;53.560;10.246;2023-09-18T08:18:12;99780.50;;;28.89;59.39
18749;BME280;9503;53.560;10.246;2023-09-18T08:20:40;99767.28;;;29.11;58.83
18749;BME280;9503;53.560;10.246;2023-09-18T08:23:08;99767.09;;;28.74;59.70
18749;BME280;9503;53.560;10.246;2023-09-18T08:25:35;99759.22;;;28.94;58.80
18749;BME280;9503;53.560;10.246;2023-09-18T08:28:03;99766.75;;;29.24;58.41
18749;BME280;9503;53.560;10.246;2023-09-18T08:30:32;99757.03;;;29.63;57.68
18749;BME280;9503;53.560;10.246;2023-09-18T08:33:00;99759.97;;;29.57;58.19
18749;BME280;9503;53.560;10.246;2023-09-18T08:35:26;99761.75;;;29.94;57.05
18749;BME280;9503;53.560;10.246;2023-09-18T08:37:54;99796.84;;;29.79;57.24
18749;BME280;9503;53.560;10.246;2023-09-18T08:40:22;99811.19;;;29.73;57.45
18749;BME280;9503;53.560;10.246;2023-09-18T08:42:52;99808.53;;;29.73;57.14
18749;BME280;9503;53.560;10.246;2023-09-18T08:45:23;99812.72;;;30.17;56.60
18749;BME280;9503;53.560;10.246;2023-09-18T08:47:52;99822.09;;;30.24;56.49
18749;BME280;9503;53.560;10.246;2023-09-18T08:50:21;99821.59;;;30.16;55.99
18749;BME280;9503;53.560;10.246;2023-09-18T08:52:48;99822.94;;;30.24;56.23
18749;BME280;9503;53.560;10.246;2023-09-18T08:55:16;99825.09;;;29.58;57.51
18749;BME280;9503;53.560;10.246;2023-09-18T08:57:44;99817.81;;;29.63;57.41
18749;BME280;9503;53.560;10.246;2023-09-18T09:00:12;99817.41;;;29.72;57.41
18749;BME280;9503;53.560;10.246;2023-09-18T09:02:42;99808.66;;;29.52;58.43
18749;BME280;9503;53.560;10.246;2023-09-18T09:05:08;99815.91;;;29.47;58.33
18749;BME280;9503;53.560;10.246;2023-09-18T09:07:37;99803.41;;;29.70;58.09
18749;BME280;9503;53.560;10.246;2023-09-18T09:10:03;99799.91;;;30.45;56.89
18749;BME280;9503;53.560;10.246;2023-09-18T09:12:49;99801.91;;;30.76;55.90
18749;BME280;9503;53.560;10.246;2023-09-18T09:15:16;99803.31;;;30.66;55.94
18749;BME280;9503;53.560;10.246;2023-09-18T09:17:43;99793.72;;;30.64;55.94
18749;BME280;9503;53.560;10.246;2023-09-18T09:20:11;99786.34;;;31.05;55.88
18749;BME280;9503;53.560;10.246;2023-09-18T09:22:40;99785.25;;;30.74;55.87
18749;BME280;9503;53.560;10.246;2023-09-18T09:25:22;99787.97;;;30.73;56.00
18749;BME280;9503;53.560;10.246;2023-09-18T09:27:51;99780.19;;;31.04;55.77
18749;BME280;9503;53.560;10.246;2023-09-18T09:30:20;99774.53;;;31.29;55.44
18749;BME280;9503;53.560;10.246;2023-09-18T09:32:51;99766.81;;;31.25;55.02
18749;BME280;9503;53.560;10.246;2023-09-18T09:35:22;99774.25;;;30.29;56.05
18749;BME280;9503;53.560;10.246;2023-09-18T09:37:56;99765.22;;;30.33;56.55
18749;BME280;9503;53.560;10.246;2023-09-18T09:40:25;99759.38;;;30.07;57.20
18749;BME280;9503;53.560;10.246;2023-09-18T09:42:52;99765.88;;;30.38;56.83
18749;BME280;9503;53.560;10.246;2023-09-18T09:45:26;99760.59;;;30.55;56.51
18749;BME280;9503;53.560;10.246;2023-09-18T09:47:53;99764.72;;;30.61;56.44
18749;BME280;9503;53.560;10.246;2023-09-18T09:50:21;99775.06;;;30.67;56.08
18749;BME280;9503;53.560;10.246;2023-09-18T09:52:49;99775.56;;;30.56;56.37
18749;BME280;9503;53.560;10.246;2023-09-18T09:55:22;99772.66;;;30.79;56.65
18749;BME280;9503;53.560;10.246;2023-09-18T09:57:52;99764.81;;;30.42;57.03
18749;BME280;9503;53.560;10.246;2023-09-18T10:00:20;99761.06;;;30.46;57.46
18749;BME280;9503;53.560;10.246;2023-09-18T10:02:56;99758.72;;;30.40;57.02
18749;BME280;9503;53.560;10.246;2023-09-18T10:05:26;99757.50;;;30.64;56.76
18749;BME280;9503;53.560;10.246;2023-09-18T10:07:57;99754.13;;;30.79;56.45
18749;BME280;9503;53.560;10.246;2023-09-18T10:10:29;99759.94;;;31.03;56.41
18749;BME280;9503;53.560;10.246;2023-09-18T10:12:58;99750.28;;;31.53;55.32
18749;BME280;9503;53.560;10.246;2023-09-18T10:15:28;99744.81;;;31.56;55.27
18749;BME280;9503;53.560;10.246;2023-09-18T10:17:59;99743.25;;;31.19;55.51
18749;BME280;9503;53.560;10.246;2023-09-18T10:20:27;99746.06;;;31.33;55.52
18749;BME280;9503;53.560;10.246;2023-09-18T10:22:59;99751.66;;;30.03;58.12
18749;BME280;9503;53.560;10.246;2023-09-18T10:25:29;99745.97;;;29.74;58.58
18749;BME280;9503;53.560;10.246;2023-09-18T10:27:57;99755.84;;;30.27;58.15
18749;BME280;9503;53.560;10.246;2023-09-18T10:30:27;99766.91;;;30.52;57.78
18749;BME280;9503;53.560;10.246;2023-09-18T10:32:56;99768.13;;;30.28;58.03
18749;BME280;9503;53.560;10.246;2023-09-18T10:35:23;99765.88;;;30.74;57.18
18749;BME280;9503;53.560;10.246;2023-09-18T10:37:54;99771.50;;;30.85;56.59
18749;BME280;9503;53.560;10.246;2023-09-18T10:40:21;99764.84;;;30.76;56.68
18749;BME280;9503;53.560;10.246;2023-09-18T10:42:50;99761.09;;;30.63;57.70
18749;BME280;9503;53.560;10.246;2023-09-18T10:45:18;99755.97;;;30.95;56.99
18749;BME280;9503;53.560;10.246;2023-09-18T10:47:46;99754.50;;;30.89;57.28
18749;BME280;9503;53.560;10.246;2023-09-18T10:50:22;99745.84;;;31.53;55.77
18749;BME280;9503;53.560;10.246;2023-09-18T10:52:49;99752.63;;;31.26;56.24
18749;BME280;9503;53.560;10.246;2023-09-18T10:55:16;99752.22;;;31.49;55.88
18749;BME280;9503;53.560;10.246;2023-09-18T10:57:51;99762.50;;;31.55;55.87
18749;BME280;9503;53.560;10.246;2023-09-18T11:00:18;99769.84;;;31.50;56.36
18749;BME280;9503;53.560;10.246;2023-09-18T11:02:49;99773.31;;;31.68;55.66
18749;BME280;9503;53.560;10.246;2023-09-18T11:05:28;99770.88;;;30.44;57.63
18749;BME280;9503;53.560;10.246;2023-09-18T11:08:25;99776.28;;;31.12;57.48
18749;BME280;9503;53.560;10.246;2023-09-18T11:11:00;99779.34;;;30.87;57.80
18749;BME280;9503;53.560;10.246;2023-09-18T11:13:38;99767.94;;;31.19;57.34
18749;BME280;9503;53.560;10.246;2023-09-18T11:16:17;99764.16;;;31.25;57.48
18749;BME280;9503;53.560;10.246;2023-09-18T11:18:47;99765.69;;;31.95;56.18
18749;BME280;9503;53.560;10.246;2023-09-18T11:21:15;99769.84;;;31.83;56.45
18749;BME280;9503;53.560;10.246;2023-09-18T11:23:43;99766.25;;;32.16;55.69
18749;BME280;9503;53.560;10.246;2023-09-18T11:26:10;99762.31;;;32.23;55.51
18749;BME280;9503;53.560;10.246;2023-09-18T11:28:38;99763.00;;;32.42;55.07
18749;BME280;9503;53.560;10.246;2023-09-18T11:31:05;99763.19;;;32.39;55.10
18749;BME280;9503;53.560;10.246;2023-09-18T11:33:34;99765.81;;;32.24;55.60
18749;BME280;9503;53.560;10.246;2023-09-18T11:36:06;99767.63;;;32.07;55.48
18749;BME280;9503;53.560;10.246;2023-09-18T11:38:34;99764.44;;;32.16;55.51
18749;BME280;9503;53.560;10.246;2023-09-18T11:41:20;99773.88;;;32.38;55.08
18749;BME280;9503;53.560;10.246;2023-09-18T11:43:48;99770.78;;;32.14;55.51
18749;BME280;9503;53.560;10.246;2023-09-18T11:46:18;99776.94;;;32.14;55.89
18749;BME280;9503;53.560;10.246;2023-09-18T11:48:46;99766.53;;;31.62;56.67
18749;BME280;9503;53.560;10.246;2023-09-18T11:51:21;99766.78;;;32.07;56.37
18749;BME280;9503;53.560;10.246;2023-09-18T11:53:50;99780.16;;;32.67;55.58
18749;BME280;9503;53.560;10.246;2023-09-18T11:56:18;99770.72;;;32.47;55.88
18749;BME280;9503;53.560;10.246;2023-09-18T11:58:46;99765.16;;;32.04;57.04
18749;BME280;9503;53.560;10.246;2023-09-18T12:01:14;99767.81;;;32.36;55.92
18749;BME280;9503;53.560;10.246;2023-09-18T12:03:42;99769.84;;;32.15;56.43
18749;BME280;9503;53.560;10.246;2023-09-18T12:06:09;99775.31;;;32.28;56.48
18749;BME280;9503;53.560;10.246;2023-09-18T12:08:38;99785.34;;;31.58;57.29
18749;BME280;9503;53.560;10.246;2023-09-18T12:11:06;99796.13;;;31.88;57.79
18749;BME280;9503;53.560;10.246;2023-09-18T12:13:33;99793.41;;;32.05;57.03
18749;BME280;9503;53.560;10.246;2023-09-18T12:16:01;99789.91;;;31.39;58.48
18749;BME280;9503;53.560;10.246;2023-09-18T12:18:31;99785.25;;;30.92;59.44
18749;BME280;9503;53.560;10.246;2023-09-18T12:21:01;99785.13;;;30.59;59.95
18749;BME280;9503;53.560;10.246;2023-09-18T12:23:36;99776.69;;;30.87;59.25
18749;BME280;9503;53.560;10.246;2023-09-18T12:26:03;99765.69;;;30.77;59.09
18749;BME280;9503;53.560;10.246;2023-09-18T12:28:33;99766.03;;;31.23;57.61
18749;BME280;9503;53.560;10.246;2023-09-18T12:31:00;99764.91;;;31.09;57.87
18749;BME280;9503;53.560;10.246;2023-09-18T12:33:33;99764.63;;;30.45;59.79
18749;BME280;9503;53.560;10.246;2023-09-18T12:36:01;99774.03;;;31.04;58.59
18749;BME280;9503;53.560;10.246;2023-09-18T12:38:28;99772.88;;;30.39;60.00
18749;BME280;9503;53.560;10.246;2023-09-18T12:41:01;99764.25;;;31.23;57.65
18749;BME280;9503;53.560;10.246;2023-09-18T12:43:40;99764.25;;;31.23;57.82
18749;BME280;9503;53.560;10.246;2023-09-18T12:46:08;99765.69;;;30.77;58.36
18749;BME280;9503;53.560;10.246;2023-09-18T12:48:38;99763.19;;;29.64;60.78
18749;BME280;9503;53.560;10.246;2023-09-18T12:51:10;99773.41;;;31.16;58.08
18749;BME280;9503;53.560;10.246;2023-09-18T12:53:37;99765.78;;;31.27;57.03
18749;BME280;9503;53.560;10.246;2023-09-18T12:56:05;99760.47;;;31.27;56.33
18749;BME280;9503;53.560;10.246;2023-09-18T12:58:32;99756.88;;;31.11;57.44
18749;BME280;9503;53.560;10.246;2023-09-18T13:01:04;99759.84;;;31.88;56.06